sensor_id;sensor_type;location;lat;lon;timestamp;P1;durP1;ratioP1;P2;durP2;ratioP2
64842;SDS011;51310;52.198;5.422;2022-11-21T00:01:16;59.42;;;28.88;;
64842;SDS011;51310;52.198;5.422;2022-11-21T00:03:50;56.28;;;27.48;;
64842;SDS011;51310;52.198;5.422;2022-11-21T00:06:16;54.22;;;27.33;;
64842;SDS011;51310;52.198;5.422;2022-11-21T00:08:43;52.85;;;27.48;;
64842;SDS011;51310;52.198;5.422;2022-11-21T00:11:10;57.58;;;28.25;;
64842;SDS011;51310;52.198;5.422;2022-11-21T00:13:37;56.55;;;27.75;;
64842;SDS011;51310;52.198;5.422;2022-11-21T00:16:04;50.63;;;26.33;;
64842;SDS011;51310;52.198;5.422;2022-11-21T00:18:34;53.83;;;26.20;;
64842;SDS011;51310;52.198;5.422;2022-11-21T00:21:05;49.10;;;25.37;;
64842;SDS011;51310;52.198;5.422;2022-11-21T00:23:36;47.05;;;24.05;;
64842;SDS011;51310;52.198;5.422;2022-11-21T00:26:03;44.47;;;23.55;;
64842;SDS011;51310;52.198;5.422;2022-11-21T00:28:32;43.15;;;24.50;;
64842;SDS011;51310;52.198;5.422;2022-11-21T00:30:59;47.25;;;24.27;;
64842;SDS011;51310;52.198;5.422;2022-11-21T00:33:24;45.70;;;23.45;;
64842;SDS011;51310;52.198;5.422;2022-11-21T00:35:50;44.72;;;24.98;;
64842;SDS011;51310;52.198;5.422;2022-11-21T00:38:16;44.15;;;24.48;;
64842;SDS011;51310;52.198;5.422;2022-11-21T00:40:42;43.23;;;24.47;;
64842;SDS011;51310;52.198;5.422;2022-11-21T00:43:09;47.35;;;23.85;;
64842;SDS011;51310;52.198;5.422;2022-11-21T00:45:35;51.33;;;25.67;;
64842;SDS011;51310;52.198;5.422;2022-11-21T00:48:01;48.45;;;25.40;;
64842;SDS011;51310;52.198;5.422;2022-11-21T00:50:27;44.40;;;23.70;;
64842;SDS011;51310;52.198;5.422;2022-11-21T00:52:55;46.07;;;24.47;;
64842;SDS011;51310;52.198;5.422;2022-11-21T00:55:23;47.60;;;24.80;;
64842;SDS011;51310;52.198;5.422;2022-11-21T00:57:49;41.67;;;23.27;;
64842;SDS011;51310;52.198;5.422;2022-11-21T01:00:16;44.40;;;24.23;;
64842;SDS011;51310;52.198;5.422;2022-11-21T01:02:43;45.70;;;23.90;;
64842;SDS011;51310;52.198;5.422;2022-11-21T01:05:08;40.22;;;22.55;;
64842;SDS011;51310;52.198;5.422;2022-11-21T01:07:34;48.33;;;25.63;;
64842;SDS011;51310;52.198;5.422;2022-11-21T01:10:00;47.73;;;25.40;;
64842;SDS011;51310;52.198;5.422;2022-11-21T01:12:26;46.85;;;24.83;;
64842;SDS011;51310;52.198;5.422;2022-11-21T01:14:52;44.60;;;24.88;;
64842;SDS011;51310;52.198;5.422;2022-11-21T01:17:18;44.03;;;23.75;;
64842;SDS011;51310;52.198;5.422;2022-11-21T01:19:44;45.53;;;24.52;;
64842;SDS011;51310;52.198;5.422;2022-11-21T01:22:10;45.97;;;25.13;;
64842;SDS011;51310;52.198;5.422;2022-11-21T01:24:36;47.17;;;24.70;;
64842;SDS011;51310;52.198;5.422;2022-11-21T01:27:01;44.80;;;23.97;;
64842;SDS011;51310;52.198;5.422;2022-11-21T01:29:27;52.97;;;25.97;;
64842;SDS011;51310;52.198;5.422;2022-11-21T01:31:53;48.67;;;25.97;;
64842;SDS011;51310;52.198;5.422;2022-11-21T01:34:19;48.37;;;25.97;;
64842;SDS011;51310;52.198;5.422;2022-11-21T01:36:45;43.63;;;24.00;;
64842;SDS011;51310;52.198;5.422;2022-11-21T01:39:11;48.35;;;25.60;;
64842;SDS011;51310;52.198;5.422;2022-11-21T01:41:38;46.15;;;24.42;;
64842;SDS011;51310;52.198;5.422;2022-11-21T01:44:09;46.53;;;25.15;;
64842;SDS011;51310;52.198;5.422;2022-11-21T01:46:48;49.47;;;25.00;;
64842;SDS011;51310;52.198;5.422;2022-11-21T01:49:17;54.15;;;26.08;;
64842;SDS011;51310;52.198;5.422;2022-11-21T01:52:08;54.80;;;26.92;;
64842;SDS011;51310;52.198;5.422;2022-11-21T01:57:26;50.03;;;26.08;;
64842;SDS011;51310;52.198;5.422;2022-11-21T02:00:01;48.33;;;25.67;;
64842;SDS011;51310;52.198;5.422;2022-11-21T02:02:39;52.17;;;26.33;;
64842;SDS011;51310;52.198;5.422;2022-11-21T02:05:16;51.03;;;25.80;;
64842;SDS011;51310;52.198;5.422;2022-11-21T02:07:51;51.42;;;26.02;;
64842;SDS011;51310;52.198;5.422;2022-11-21T02:10:22;52.03;;;25.65;;
64842;SDS011;51310;52.198;5.422;2022-11-21T02:12:49;46.13;;;24.05;;
64842;SDS011;51310;52.198;5.422;2022-11-21T02:15:18;47.50;;;24.63;;
64842;SDS011;51310;52.198;5.422;2022-11-21T02:17:48;52.25;;;26.63;;
64842;SDS011;51310;52.198;5.422;2022-11-21T02:20:15;48.87;;;26.23;;
64842;SDS011;51310;52.198;5.422;2022-11-21T02:25:30;47.05;;;25.05;;
64842;SDS011;51310;52.198;5.422;2022-11-21T02:28:11;47.28;;;24.40;;
64842;SDS011;51310;52.198;5.422;2022-11-21T02:30:43;43.97;;;23.45;;
64842;SDS011;51310;52.198;5.422;2022-11-21T02:33:09;42.72;;;22.15;;
64842;SDS011;51310;52.198;5.422;2022-11-21T02:35:36;42.53;;;23.23;;
64842;SDS011;51310;52.198;5.422;2022-11-21T02:38:36;41.45;;;22.42;;
64842;SDS011;51310;52.198;5.422;2022-11-21T02:41:00;42.00;;;22.90;;
64842;SDS011;51310;52.198;5.422;2022-11-21T02:43:43;39.78;;;21.77;;
64842;SDS011;51310;52.198;5.422;2022-11-21T02:46:15;41.97;;;21.67;;
64842;SDS011;51310;52.198;5.422;2022-11-21T02:48:41;44.17;;;23.30;;
64842;SDS011;51310;52.198;5.422;2022-11-21T02:51:07;44.92;;;23.63;;
64842;SDS011;51310;52.198;5.422;2022-11-21T02:53:33;42.97;;;21.90;;
64842;SDS011;51310;52.198;5.422;2022-11-21T02:55:59;44.17;;;22.20;;
64842;SDS011;51310;52.198;5.422;2022-11-21T02:58:24;39.38;;;22.08;;
64842;SDS011;51310;52.198;5.422;2022-11-21T03:00:50;45.53;;;23.60;;
64842;SDS011;51310;52.198;5.422;2022-11-21T03:03:16;46.92;;;23.50;;
64842;SDS011;51310;52.198;5.422;2022-11-21T03:05:42;42.70;;;22.63;;
64842;SDS011;51310;52.198;5.422;2022-11-21T03:08:08;46.17;;;22.58;;
64842;SDS011;51310;52.198;5.422;2022-11-21T03:10:34;42.22;;;23.73;;
64842;SDS011;51310;52.198;5.422;2022-11-21T03:13:00;41.80;;;22.67;;
64842;SDS011;51310;52.198;5.422;2022-11-21T03:15:30;41.35;;;22.85;;
64842;SDS011;51310;52.198;5.422;2022-11-21T03:17:58;42.40;;;23.45;;
64842;SDS011;51310;52.198;5.422;2022-11-21T03:20:30;41.50;;;22.25;;
64842;SDS011;51310;52.198;5.422;2022-11-21T03:22:58;44.13;;;23.48;;
64842;SDS011;51310;52.198;5.422;2022-11-21T03:25:25;48.53;;;24.73;;
64842;SDS011;51310;52.198;5.422;2022-11-21T03:27:51;46.83;;;24.35;;
64842;SDS011;51310;52.198;5.422;2022-11-21T03:30:22;45.45;;;24.05;;
64842;SDS011;51310;52.198;5.422;2022-11-21T03:32:50;42.40;;;23.27;;
64842;SDS011;51310;52.198;5.422;2022-11-21T03:35:20;44.00;;;23.52;;
64842;SDS011;51310;52.198;5.422;2022-11-21T03:37:47;42.83;;;22.77;;
64842;SDS011;51310;52.198;5.422;2022-11-21T03:40:13;43.13;;;23.48;;
64842;SDS011;51310;52.198;5.422;2022-11-21T03:42:38;43.53;;;23.13;;
64842;SDS011;51310;52.198;5.422;2022-11-21T03:45:05;48.22;;;24.60;;
64842;SDS011;51310;52.198;5.422;2022-11-21T03:47:31;44.28;;;23.90;;
64842;SDS011;51310;52.198;5.422;2022-11-21T03:49:57;46.23;;;23.70;;
64842;SDS011;51310;52.198;5.422;2022-11-21T03:52:23;48.67;;;24.07;;
64842;SDS011;51310;52.198;5.422;2022-11-21T03:54:49;51.70;;;23.80;;
64842;SDS011;51310;52.198;5.422;2022-11-21T03:57:15;53.78;;;23.95;;
64842;SDS011;51310;52.198;5.422;2022-11-21T03:59:41;52.97;;;23.23;;
64842;SDS011;51310;52.198;5.422;2022-11-21T04:02:07;58.28;;;23.73;;
64842;SDS011;51310;52.198;5.422;2022-11-21T04:04:32;51.03;;;23.10;;
64842;SDS011;51310;52.198;5.422;2022-11-21T04:06:58;56.95;;;24.52;;
64842;SDS011;51310;52.198;5.422;2022-11-21T04:09:24;53.35;;;23.38;;
64842;SDS011;51310;52.198;5.422;2022-11-21T04:11:50;53.05;;;23.17;;
64842;SDS011;51310;52.198;5.422;2022-11-21T04:14:16;58.38;;;24.42;;
64842;SDS011;51310;52.198;5.422;2022-11-21T04:16:42;55.10;;;24.33;;
64842;SDS011;51310;52.198;5.422;2022-11-21T04:19:07;62.03;;;25.03;;
64842;SDS011;51310;52.198;5.422;2022-11-21T04:21:33;63.77;;;25.40;;
64842;SDS011;51310;52.198;5.422;2022-11-21T04:23:59;76.50;;;26.00;;
64842;SDS011;51310;52.198;5.422;2022-11-21T04:26:25;75.47;;;26.10;;
64842;SDS011;51310;52.198;5.422;2022-11-21T04:28:51;78.67;;;26.87;;
64842;SDS011;51310;52.198;5.422;2022-11-21T04:31:16;92.65;;;28.63;;
64842;SDS011;51310;52.198;5.422;2022-11-21T04:33:42;81.00;;;26.98;;
64842;SDS011;51310;52.198;5.422;2022-11-21T04:36:08;118.35;;;29.50;;
64842;SDS011;51310;52.198;5.422;2022-11-21T04:38:35;82.80;;;27.33;;
64842;SDS011;51310;52.198;5.422;2022-11-21T04:41:01;99.68;;;28.30;;
64842;SDS011;51310;52.198;5.422;2022-11-21T04:43:27;69.55;;;25.02;;
64842;SDS011;51310;52.198;5.422;2022-11-21T04:45:52;99.05;;;28.10;;
64842;SDS011;51310;52.198;5.422;2022-11-21T04:48:18;118.78;;;28.42;;
64842;SDS011;51310;52.198;5.422;2022-11-21T04:50:44;130.77;;;27.20;;
64842;SDS011;51310;52.198;5.422;2022-11-21T04:53:10;138.55;;;27.77;;
64842;SDS011;51310;52.198;5.422;2022-11-21T04:55:36;129.43;;;26.63;;
64842;SDS011;51310;52.198;5.422;2022-11-21T04:58:02;148.77;;;26.85;;
64842;SDS011;51310;52.198;5.422;2022-11-21T05:00:28;93.63;;;25.42;;
64842;SDS011;51310;52.198;5.422;2022-11-21T05:02:54;159.87;;;27.70;;
64842;SDS011;51310;52.198;5.422;2022-11-21T05:05:29;148.32;;;26.42;;
64842;SDS011;51310;52.198;5.422;2022-11-21T05:07:55;139.17;;;26.87;;
64842;SDS011;51310;52.198;5.422;2022-11-21T05:10:21;77.25;;;23.92;;
64842;SDS011;51310;52.198;5.422;2022-11-21T05:12:47;80.20;;;25.55;;
64842;SDS011;51310;52.198;5.422;2022-11-21T05:15:40;93.13;;;25.27;;
64842;SDS011;51310;52.198;5.422;2022-11-21T05:18:07;114.03;;;28.10;;
64842;SDS011;51310;52.198;5.422;2022-11-21T05:20:32;116.53;;;27.67;;
64842;SDS011;51310;52.198;5.422;2022-11-21T05:22:58;102.72;;;25.85;;
64842;SDS011;51310;52.198;5.422;2022-11-21T05:25:24;87.93;;;25.88;;
64842;SDS011;51310;52.198;5.422;2022-11-21T05:27:50;117.88;;;28.33;;
64842;SDS011;51310;52.198;5.422;2022-11-21T05:30:20;155.87;;;28.07;;
64842;SDS011;51310;52.198;5.422;2022-11-21T05:32:46;155.48;;;29.02;;
64842;SDS011;51310;52.198;5.422;2022-11-21T05:35:12;234.70;;;30.83;;
64842;SDS011;51310;52.198;5.422;2022-11-21T05:37:38;116.32;;;27.67;;
64842;SDS011;51310;52.198;5.422;2022-11-21T05:40:04;234.32;;;31.33;;
64842;SDS011;51310;52.198;5.422;2022-11-21T05:42:31;204.63;;;31.40;;
64842;SDS011;51310;52.198;5.422;2022-11-21T05:45:15;139.90;;;27.92;;
64842;SDS011;51310;52.198;5.422;2022-11-21T05:47:41;152.68;;;27.67;;
64842;SDS011;51310;52.198;5.422;2022-11-21T05:50:07;156.10;;;29.42;;
64842;SDS011;51310;52.198;5.422;2022-11-21T05:52:33;157.57;;;28.17;;
64842;SDS011;51310;52.198;5.422;2022-11-21T05:54:59;131.05;;;27.02;;
64842;SDS011;51310;52.198;5.422;2022-11-21T05:57:25;144.57;;;27.08;;
64842;SDS011;51310;52.198;5.422;2022-11-21T05:59:51;123.40;;;26.63;;
64842;SDS011;51310;52.198;5.422;2022-11-21T06:02:17;163.60;;;30.30;;
64842;SDS011;51310;52.198;5.422;2022-11-21T06:05:01;181.50;;;29.52;;
64842;SDS011;51310;52.198;5.422;2022-11-21T06:07:27;211.85;;;29.40;;
64842;SDS011;51310;52.198;5.422;2022-11-21T06:09:52;58.45;;;25.25;;
64842;SDS011;51310;52.198;5.422;2022-11-21T06:12:18;168.45;;;29.52;;
64842;SDS011;51310;52.198;5.422;2022-11-21T06:14:44;104.10;;;26.15;;
64842;SDS011;51310;52.198;5.422;2022-11-21T06:17:10;73.55;;;24.17;;
64842;SDS011;51310;52.198;5.422;2022-11-21T06:19:36;55.83;;;22.05;;
64842;SDS011;51310;52.198;5.422;2022-11-21T06:22:02;63.35;;;22.25;;
64842;SDS011;51310;52.198;5.422;2022-11-21T06:24:28;55.92;;;21.95;;
64842;SDS011;51310;52.198;5.422;2022-11-21T06:26:54;69.68;;;22.77;;
64842;SDS011;51310;52.198;5.422;2022-11-21T06:29:20;71.43;;;22.20;;
64842;SDS011;51310;52.198;5.422;2022-11-21T06:31:46;76.63;;;23.47;;
64842;SDS011;51310;52.198;5.422;2022-11-21T06:34:12;88.88;;;23.52;;
64842;SDS011;51310;52.198;5.422;2022-11-21T06:36:37;71.28;;;21.25;;
64842;SDS011;51310;52.198;5.422;2022-11-21T06:39:03;91.22;;;23.33;;
64842;SDS011;51310;52.198;5.422;2022-11-21T06:41:29;118.75;;;23.65;;
64842;SDS011;51310;52.198;5.422;2022-11-21T06:43:57;77.13;;;23.50;;
64842;SDS011;51310;52.198;5.422;2022-11-21T06:46:26;108.67;;;24.10;;
64842;SDS011;51310;52.198;5.422;2022-11-21T06:48:52;100.13;;;23.30;;
64842;SDS011;51310;52.198;5.422;2022-11-21T06:51:19;64.75;;;22.98;;
64842;SDS011;51310;52.198;5.422;2022-11-21T06:53:51;64.40;;;21.10;;
64842;SDS011;51310;52.198;5.422;2022-11-21T06:56:21;69.28;;;22.95;;
64842;SDS011;51310;52.198;5.422;2022-11-21T06:58:53;68.63;;;23.45;;
64842;SDS011;51310;52.198;5.422;2022-11-21T07:01:19;67.70;;;22.85;;
64842;SDS011;51310;52.198;5.422;2022-11-21T07:03:45;64.10;;;22.85;;
64842;SDS011;51310;52.198;5.422;2022-11-21T07:06:11;57.43;;;22.57;;
64842;SDS011;51310;52.198;5.422;2022-11-21T07:08:37;54.95;;;21.38;;
64842;SDS011;51310;52.198;5.422;2022-11-21T07:11:07;53.55;;;21.17;;
64842;SDS011;51310;52.198;5.422;2022-11-21T07:13:38;50.88;;;19.25;;
64842;SDS011;51310;52.198;5.422;2022-11-21T07:16:05;61.45;;;21.52;;
64842;SDS011;51310;52.198;5.422;2022-11-21T07:18:35;52.08;;;20.55;;
64842;SDS011;51310;52.198;5.422;2022-11-21T07:21:04;58.22;;;22.27;;
64842;SDS011;51310;52.198;5.422;2022-11-21T07:23:31;58.28;;;22.00;;
64842;SDS011;51310;52.198;5.422;2022-11-21T07:26:00;58.55;;;21.85;;
64842;SDS011;51310;52.198;5.422;2022-11-21T07:28:29;66.95;;;22.83;;
64842;SDS011;51310;52.198;5.422;2022-11-21T07:30:56;70.77;;;23.27;;
64842;SDS011;51310;52.198;5.422;2022-11-21T07:33:23;67.50;;;22.30;;
64842;SDS011;51310;52.198;5.422;2022-11-21T07:35:50;64.40;;;21.80;;
64842;SDS011;51310;52.198;5.422;2022-11-21T07:38:16;72.13;;;22.13;;
64842;SDS011;51310;52.198;5.422;2022-11-21T07:40:42;68.40;;;22.88;;
64842;SDS011;51310;52.198;5.422;2022-11-21T07:43:08;69.50;;;23.08;;
64842;SDS011;51310;52.198;5.422;2022-11-21T07:45:35;64.22;;;21.88;;
64842;SDS011;51310;52.198;5.422;2022-11-21T07:48:02;62.00;;;21.55;;
64842;SDS011;51310;52.198;5.422;2022-11-21T07:50:31;58.13;;;20.95;;
64842;SDS011;51310;52.198;5.422;2022-11-21T07:53:02;61.10;;;21.10;;
64842;SDS011;51310;52.198;5.422;2022-11-21T07:55:33;56.55;;;21.70;;
64842;SDS011;51310;52.198;5.422;2022-11-21T07:57:59;63.33;;;22.03;;
64842;SDS011;51310;52.198;5.422;2022-11-21T08:00:33;55.25;;;21.02;;
64842;SDS011;51310;52.198;5.422;2022-11-21T08:03:02;50.58;;;20.60;;
64842;SDS011;51310;52.198;5.422;2022-11-21T08:05:30;54.70;;;21.38;;
64842;SDS011;51310;52.198;5.422;2022-11-21T08:08:01;60.47;;;21.80;;
64842;SDS011;51310;52.198;5.422;2022-11-21T08:10:28;61.15;;;22.30;;
64842;SDS011;51310;52.198;5.422;2022-11-21T08:12:54;55.15;;;20.75;;
64842;SDS011;51310;52.198;5.422;2022-11-21T08:15:20;60.45;;;20.55;;
64842;SDS011;51310;52.198;5.422;2022-11-21T08:17:45;57.72;;;21.63;;
64842;SDS011;51310;52.198;5.422;2022-11-21T08:20:11;52.53;;;20.03;;
64842;SDS011;51310;52.198;5.422;2022-11-21T08:22:40;55.50;;;21.00;;
64842;SDS011;51310;52.198;5.422;2022-11-21T08:25:08;59.30;;;21.15;;
64842;SDS011;51310;52.198;5.422;2022-11-21T08:27:38;56.63;;;22.23;;
64842;SDS011;51310;52.198;5.422;2022-11-21T08:30:08;55.33;;;21.58;;
64842;SDS011;51310;52.198;5.422;2022-11-21T08:32:36;61.17;;;22.25;;
64842;SDS011;51310;52.198;5.422;2022-11-21T08:35:02;59.88;;;21.30;;
64842;SDS011;51310;52.198;5.422;2022-11-21T08:37:28;60.85;;;21.10;;
64842;SDS011;51310;52.198;5.422;2022-11-21T08:39:55;52.42;;;21.45;;
64842;SDS011;51310;52.198;5.422;2022-11-21T08:42:24;51.35;;;20.38;;
64842;SDS011;51310;52.198;5.422;2022-11-21T08:44:51;60.22;;;21.23;;
64842;SDS011;51310;52.198;5.422;2022-11-21T08:47:17;49.23;;;19.90;;
64842;SDS011;51310;52.198;5.422;2022-11-21T08:49:44;51.58;;;20.80;;
64842;SDS011;51310;52.198;5.422;2022-11-21T08:52:10;52.75;;;20.98;;
64842;SDS011;51310;52.198;5.422;2022-11-21T08:54:37;51.97;;;20.70;;
64842;SDS011;51310;52.198;5.422;2022-11-21T08:57:03;47.33;;;19.23;;
64842;SDS011;51310;52.198;5.422;2022-11-21T08:59:29;53.83;;;20.45;;
64842;SDS011;51310;52.198;5.422;2022-11-21T09:01:55;51.60;;;19.52;;
64842;SDS011;51310;52.198;5.422;2022-11-21T09:04:21;45.58;;;18.98;;
64842;SDS011;51310;52.198;5.422;2022-11-21T09:06:47;48.42;;;20.60;;
64842;SDS011;51310;52.198;5.422;2022-11-21T09:09:13;49.85;;;19.27;;
64842;SDS011;51310;52.198;5.422;2022-11-21T09:11:39;54.58;;;20.05;;
64842;SDS011;51310;52.198;5.422;2022-11-21T09:14:04;58.17;;;20.17;;
64842;SDS011;51310;52.198;5.422;2022-11-21T09:16:49;64.45;;;20.13;;
64842;SDS011;51310;52.198;5.422;2022-11-21T09:19:34;55.38;;;20.95;;
64842;SDS011;51310;52.198;5.422;2022-11-21T09:21:59;58.35;;;21.30;;
64842;SDS011;51310;52.198;5.422;2022-11-21T09:24:25;59.97;;;21.20;;
64842;SDS011;51310;52.198;5.422;2022-11-21T09:26:51;54.67;;;20.90;;
64842;SDS011;51310;52.198;5.422;2022-11-21T09:29:17;61.03;;;22.73;;
64842;SDS011;51310;52.198;5.422;2022-11-21T09:31:43;60.97;;;21.67;;
64842;SDS011;51310;52.198;5.422;2022-11-21T09:34:09;68.22;;;22.27;;
64842;SDS011;51310;52.198;5.422;2022-11-21T09:36:35;68.18;;;22.70;;
64842;SDS011;51310;52.198;5.422;2022-11-21T09:39:02;64.43;;;21.85;;
64842;SDS011;51310;52.198;5.422;2022-11-21T09:41:31;68.13;;;22.55;;
64842;SDS011;51310;52.198;5.422;2022-11-21T09:47:47;74.53;;;23.30;;
64842;SDS011;51310;52.198;5.422;2022-11-21T09:50:28;65.25;;;22.40;;
64842;SDS011;51310;52.198;5.422;2022-11-21T09:55:56;70.73;;;23.50;;
64842;SDS011;51310;52.198;5.422;2022-11-21T09:58:37;80.55;;;24.33;;
64842;SDS011;51310;52.198;5.422;2022-11-21T10:01:21;76.07;;;24.13;;
64842;SDS011;51310;52.198;5.422;2022-11-21T10:03:48;81.80;;;24.33;;
64842;SDS011;51310;52.198;5.422;2022-11-21T10:06:23;82.80;;;25.38;;
64842;SDS011;51310;52.198;5.422;2022-11-21T10:09:08;84.18;;;24.83;;
64842;SDS011;51310;52.198;5.422;2022-11-21T10:15:48;74.57;;;25.75;;
64842;SDS011;51310;52.198;5.422;2022-11-21T10:22:03;66.88;;;24.77;;
64842;SDS011;51310;52.198;5.422;2022-11-21T10:28:50;60.55;;;23.88;;
64842;SDS011;51310;52.198;5.422;2022-11-21T10:31:03;65.78;;;24.02;;
64842;SDS011;51310;52.198;5.422;2022-11-21T10:33:36;66.65;;;24.15;;
64842;SDS011;51310;52.198;5.422;2022-11-21T10:36:47;63.80;;;23.65;;
64842;SDS011;51310;52.198;5.422;2022-11-21T10:39:19;63.87;;;23.17;;
64842;SDS011;51310;52.198;5.422;2022-11-21T10:42:31;61.90;;;24.08;;
64842;SDS011;51310;52.198;5.422;2022-11-21T10:45:14;55.10;;;23.77;;
64842;SDS011;51310;52.198;5.422;2022-11-21T10:47:47;58.50;;;23.60;;
64842;SDS011;51310;52.198;5.422;2022-11-21T10:50:24;62.67;;;24.95;;
64842;SDS011;51310;52.198;5.422;2022-11-21T10:53:35;59.60;;;23.08;;
64842;SDS011;51310;52.198;5.422;2022-11-21T10:56:20;53.30;;;22.75;;
64842;SDS011;51310;52.198;5.422;2022-11-21T10:58:59;61.17;;;24.55;;
64842;SDS011;51310;52.198;5.422;2022-11-21T11:01:56;63.35;;;24.50;;
64842;SDS011;51310;52.198;5.422;2022-11-21T11:04:48;56.15;;;23.35;;
64842;SDS011;51310;52.198;5.422;2022-11-21T11:07:40;62.95;;;24.30;;
64842;SDS011;51310;52.198;5.422;2022-11-21T11:10:14;58.10;;;22.95;;
64842;SDS011;51310;52.198;5.422;2022-11-21T11:12:48;55.45;;;23.05;;
64842;SDS011;51310;52.198;5.422;2022-11-21T11:15:35;55.13;;;23.77;;
64842;SDS011;51310;52.198;5.422;2022-11-21T11:18:18;57.97;;;24.45;;
64842;SDS011;51310;52.198;5.422;2022-11-21T11:20:47;54.58;;;24.33;;
64842;SDS011;51310;52.198;5.422;2022-11-21T11:23:24;54.63;;;24.48;;
64842;SDS011;51310;52.198;5.422;2022-11-21T11:28:21;52.90;;;23.23;;
64842;SDS011;51310;52.198;5.422;2022-11-21T11:30:48;58.35;;;24.50;;
64842;SDS011;51310;52.198;5.422;2022-11-21T11:36:35;55.15;;;23.52;;
64842;SDS011;51310;52.198;5.422;2022-11-21T11:42:07;54.15;;;24.77;;
64842;SDS011;51310;52.198;5.422;2022-11-21T11:45:29;52.20;;;24.77;;
64842;SDS011;51310;52.198;5.422;2022-11-21T11:48:38;55.97;;;25.23;;
64842;SDS011;51310;52.198;5.422;2022-11-21T11:51:19;50.80;;;24.90;;
64842;SDS011;51310;52.198;5.422;2022-11-21T11:53:54;54.15;;;24.80;;
64842;SDS011;51310;52.198;5.422;2022-11-21T11:56:31;49.90;;;24.02;;
64842;SDS011;51310;52.198;5.422;2022-11-21T12:04:50;55.75;;;25.67;;
64842;SDS011;51310;52.198;5.422;2022-11-21T12:07:36;51.30;;;25.08;;
64842;SDS011;51310;52.198;5.422;2022-11-21T12:13:04;45.47;;;23.58;;
64842;SDS011;51310;52.198;5.422;2022-11-21T12:15:39;56.13;;;25.35;;
64842;SDS011;51310;52.198;5.422;2022-11-21T12:29:04;49.65;;;25.02;;
64842;SDS011;51310;52.198;5.422;2022-11-21T12:32:33;51.03;;;24.83;;
64842;SDS011;51310;52.198;5.422;2022-11-21T12:44:41;45.80;;;24.27;;
64842;SDS011;51310;52.198;5.422;2022-11-21T12:47:37;46.83;;;23.27;;
64842;SDS011;51310;52.198;5.422;2022-11-21T12:57:48;51.80;;;25.70;;
64842;SDS011;51310;52.198;5.422;2022-11-21T13:04:15;41.13;;;21.97;;
64842;SDS011;51310;52.198;5.422;2022-11-21T13:06:54;39.65;;;21.88;;
64842;SDS011;51310;52.198;5.422;2022-11-21T13:09:22;42.67;;;20.40;;
64842;SDS011;51310;52.198;5.422;2022-11-21T13:15:27;37.65;;;20.13;;
64842;SDS011;51310;52.198;5.422;2022-11-21T13:18:12;38.40;;;20.58;;
64842;SDS011;51310;52.198;5.422;2022-11-21T13:20:54;39.70;;;21.43;;
64842;SDS011;51310;52.198;5.422;2022-11-21T13:23:33;41.08;;;20.80;;
64842;SDS011;51310;52.198;5.422;2022-11-21T13:31:39;40.58;;;21.45;;
64842;SDS011;51310;52.198;5.422;2022-11-21T13:37:03;40.08;;;21.80;;
64842;SDS011;51310;52.198;5.422;2022-11-21T13:39:30;41.22;;;21.92;;
64842;SDS011;51310;52.198;5.422;2022-11-21T13:42:00;43.13;;;22.35;;
64842;SDS011;51310;52.198;5.422;2022-11-21T13:44:50;40.80;;;21.83;;
64842;SDS011;51310;52.198;5.422;2022-11-21T13:50:32;41.40;;;21.27;;
64842;SDS011;51310;52.198;5.422;2022-11-21T14:03:00;47.40;;;22.20;;
64842;SDS011;51310;52.198;5.422;2022-11-21T14:20:20;46.43;;;21.63;;
64842;SDS011;51310;52.198;5.422;2022-11-21T14:23:11;42.00;;;21.58;;
64842;SDS011;51310;52.198;5.422;2022-11-21T14:25:53;44.72;;;21.73;;
64842;SDS011;51310;52.198;5.422;2022-11-21T14:28:43;42.70;;;20.90;;
64842;SDS011;51310;52.198;5.422;2022-11-21T14:31:10;42.22;;;20.42;;
64842;SDS011;51310;52.198;5.422;2022-11-21T14:33:41;36.80;;;19.67;;
64842;SDS011;51310;52.198;5.422;2022-11-21T14:38:50;37.60;;;19.55;;
64842;SDS011;51310;52.198;5.422;2022-11-21T14:41:24;40.35;;;19.92;;
64842;SDS011;51310;52.198;5.422;2022-11-21T14:46:29;38.92;;;18.95;;
64842;SDS011;51310;52.198;5.422;2022-11-21T14:51:44;39.90;;;19.10;;
64842;SDS011;51310;52.198;5.422;2022-11-21T14:54:45;34.45;;;18.05;;
64842;SDS011;51310;52.198;5.422;2022-11-21T14:57:23;39.45;;;19.08;;
64842;SDS011;51310;52.198;5.422;2022-11-21T14:59:55;31.67;;;17.23;;
64842;SDS011;51310;52.198;5.422;2022-11-21T15:02:23;34.58;;;17.25;;
64842;SDS011;51310;52.198;5.422;2022-11-21T15:04:58;30.83;;;16.50;;
64842;SDS011;51310;52.198;5.422;2022-11-21T15:07:50;30.05;;;16.52;;
64842;SDS011;51310;52.198;5.422;2022-11-21T15:10:16;30.42;;;16.48;;
64842;SDS011;51310;52.198;5.422;2022-11-21T15:15:30;31.20;;;16.58;;
64842;SDS011;51310;52.198;5.422;2022-11-21T15:18:02;33.33;;;16.23;;
64842;SDS011;51310;52.198;5.422;2022-11-21T15:20:36;33.13;;;16.23;;
64842;SDS011;51310;52.198;5.422;2022-11-21T15:23:02;31.98;;;16.60;;
64842;SDS011;51310;52.198;5.422;2022-11-21T15:25:30;27.77;;;16.02;;
64842;SDS011;51310;52.198;5.422;2022-11-21T15:28:14;23.88;;;14.73;;
64842;SDS011;51310;52.198;5.422;2022-11-21T15:30:42;32.72;;;15.93;;
64842;SDS011;51310;52.198;5.422;2022-11-21T15:33:18;33.03;;;15.52;;
64842;SDS011;51310;52.198;5.422;2022-11-21T15:35:49;29.17;;;14.50;;
64842;SDS011;51310;52.198;5.422;2022-11-21T15:43:45;27.70;;;14.60;;
64842;SDS011;51310;52.198;5.422;2022-11-21T15:46:24;27.45;;;13.73;;
64842;SDS011;51310;52.198;5.422;2022-11-21T15:48:58;31.65;;;13.63;;
64842;SDS011;51310;52.198;5.422;2022-11-21T15:54:11;29.17;;;14.32;;
64842;SDS011;51310;52.198;5.422;2022-11-21T15:56:46;22.55;;;12.27;;
64842;SDS011;51310;52.198;5.422;2022-11-21T15:59:12;28.45;;;12.93;;
64842;SDS011;51310;52.198;5.422;2022-11-21T16:01:39;26.60;;;13.97;;
64842;SDS011;51310;52.198;5.422;2022-11-21T16:04:07;25.75;;;12.25;;
64842;SDS011;51310;52.198;5.422;2022-11-21T16:06:36;27.13;;;13.50;;
64842;SDS011;51310;52.198;5.422;2022-11-21T16:09:02;27.35;;;13.25;;
64842;SDS011;51310;52.198;5.422;2022-11-21T16:11:30;27.38;;;13.80;;
64842;SDS011;51310;52.198;5.422;2022-11-21T16:14:02;25.75;;;13.25;;
64842;SDS011;51310;52.198;5.422;2022-11-21T16:16:37;27.33;;;13.70;;
64842;SDS011;51310;52.198;5.422;2022-11-21T16:19:06;23.52;;;13.75;;
64842;SDS011;51310;52.198;5.422;2022-11-21T16:21:33;28.17;;;15.07;;
64842;SDS011;51310;52.198;5.422;2022-11-21T16:24:00;29.73;;;14.45;;
64842;SDS011;51310;52.198;5.422;2022-11-21T16:26:26;34.25;;;14.48;;
64842;SDS011;51310;52.198;5.422;2022-11-21T16:28:56;26.48;;;13.85;;
64842;SDS011;51310;52.198;5.422;2022-11-21T16:31:25;24.05;;;14.23;;
64842;SDS011;51310;52.198;5.422;2022-11-21T16:33:54;30.08;;;15.70;;
64842;SDS011;51310;52.198;5.422;2022-11-21T16:36:21;24.65;;;13.70;;
64842;SDS011;51310;52.198;5.422;2022-11-21T16:38:53;27.10;;;14.57;;
64842;SDS011;51310;52.198;5.422;2022-11-21T16:41:20;22.30;;;14.13;;
64842;SDS011;51310;52.198;5.422;2022-11-21T16:43:48;25.42;;;13.48;;
64842;SDS011;51310;52.198;5.422;2022-11-21T16:46:17;25.98;;;13.10;;
64842;SDS011;51310;52.198;5.422;2022-11-21T16:48:47;27.17;;;13.80;;
64842;SDS011;51310;52.198;5.422;2022-11-21T16:51:24;27.53;;;13.23;;
64842;SDS011;51310;52.198;5.422;2022-11-21T16:53:50;29.98;;;13.75;;